createdAt,value
2018-10-16T00:01:54.758Z,99.90
2018-10-16T00:04:23.220Z,99.90
2018-10-16T00:06:51.692Z,99.90
2018-10-16T00:09:20.162Z,99.90
2018-10-16T00:11:59.183Z,99.90
2018-10-16T00:14:27.894Z,99.90
2018-10-16T00:16:56.372Z,99.90
2018-10-16T00:19:25.003Z,99.90
2018-10-16T00:21:53.901Z,99.90
2018-10-16T00:24:22.355Z,99.90
2018-10-16T00:26:51.107Z,99.90
2018-10-16T00:29:19.757Z,99.90
2018-10-16T00:31:48.243Z,99.90
2018-10-16T00:34:16.811Z,99.90
2018-10-16T00:36:45.294Z,99.90
2018-10-16T00:39:15.844Z,99.90
2018-10-16T00:41:48.553Z,99.90
2018-10-16T00:44:17.539Z,99.90
2018-10-16T00:46:46.077Z,99.90
2018-10-16T00:49:14.860Z,99.90
2018-10-16T00:51:43.462Z,99.90
2018-10-16T00:54:12.030Z,99.90
2018-10-16T00:56:40.582Z,99.90
2018-10-16T00:59:09.148Z,99.90
2018-10-16T01:01:37.770Z,99.90
2018-10-16T01:04:07.278Z,99.90
2018-10-16T01:06:36.559Z,99.90
2018-10-16T01:09:08.662Z,99.90
2018-10-16T01:11:37.346Z,99.90
2018-10-16T01:14:05.899Z,99.90
2018-10-16T01:16:34.383Z,99.90
2018-10-16T01:19:02.867Z,99.90
2018-10-16T01:21:31.443Z,99.90
2018-10-16T01:23:59.948Z,99.90
2018-10-16T01:26:28.401Z,99.90
2018-10-16T01:28:56.863Z,99.90
2018-10-16T01:31:25.291Z,99.90
2018-10-16T01:33:53.759Z,99.90
2018-10-16T01:36:22.254Z,99.90
2018-10-16T01:38:50.756Z,99.90
2018-10-16T01:41:19.218Z,99.90
2018-10-16T01:43:47.765Z,99.90
2018-10-16T01:46:16.276Z,99.90
2018-10-16T01:48:44.775Z,99.90
2018-10-16T01:51:13.303Z,99.90
2018-10-16T01:53:41.783Z,99.90
2018-10-16T01:56:10.227Z,99.90
2018-10-16T01:58:38.783Z,99.90
2018-10-16T02:01:07.227Z,99.90
2018-10-16T02:03:35.702Z,99.90
2018-10-16T02:06:04.284Z,99.90
2018-10-16T02:08:32.882Z,99.90
2018-10-16T02:11:01.329Z,99.90
2018-10-16T02:13:29.865Z,99.90
2018-10-16T02:15:58.416Z,99.90
2018-10-16T02:18:26.910Z,99.90
2018-10-16T02:20:55.584Z,99.90
2018-10-16T02:23:24.066Z,99.90
2018-10-16T02:25:52.549Z,99.90
2018-10-16T02:28:21.051Z,99.90
2018-10-16T02:30:49.519Z,99.90
2018-10-16T02:33:18.008Z,99.90
2018-10-16T02:35:46.509Z,99.90
2018-10-16T02:38:15.243Z,99.90
2018-10-16T02:40:43.751Z,99.90
2018-10-16T02:43:12.228Z,99.90
2018-10-16T02:45:40.714Z,99.90
2018-10-16T02:48:09.134Z,99.90
2018-10-16T02:50:37.653Z,99.90
2018-10-16T02:53:06.193Z,99.90
2018-10-16T02:55:34.645Z,99.90
2018-10-16T02:58:03.459Z,99.90
2018-10-16T03:00:31.964Z,99.90
2018-10-16T03:03:00.542Z,99.90
2018-10-16T03:05:29.139Z,99.90
2018-10-16T03:07:57.703Z,99.90
2018-10-16T03:10:26.339Z,99.90
2018-10-16T03:12:54.786Z,99.90
2018-10-16T03:15:23.430Z,99.90
2018-10-16T03:17:51.889Z,99.90
2018-10-16T03:20:20.576Z,99.90
2018-10-16T03:22:49.033Z,99.90
2018-10-16T03:25:17.528Z,99.90
2018-10-16T03:27:45.980Z,99.90
2018-10-16T03:30:14.467Z,99.90
2018-10-16T03:32:42.931Z,99.90
2018-10-16T03:35:12.199Z,99.90
2018-10-16T03:37:41.422Z,99.90
2018-10-16T03:40:10.823Z,99.90
2018-10-16T03:42:40.292Z,99.90
2018-10-16T03:45:10.147Z,99.90
2018-10-16T03:47:39.075Z,99.90
2018-10-16T03:50:08.130Z,99.90
2018-10-16T03:52:36.695Z,99.90
2018-10-16T03:55:05.802Z,99.90
2018-10-16T03:57:34.284Z,99.90
2018-10-16T04:00:02.806Z,99.90
2018-10-16T04:02:31.302Z,99.90
2018-10-16T04:04:59.897Z,99.90
2018-10-16T04:07:28.461Z,99.90
2018-10-16T04:09:56.908Z,99.90
2018-10-16T04:12:25.358Z,99.90
2018-10-16T04:14:53.934Z,99.90
2018-10-16T04:17:23.567Z,99.90
2018-10-16T04:19:52.406Z,99.90
2018-10-16T04:22:20.929Z,99.90
2018-10-16T04:24:49.623Z,99.90
2018-10-16T04:27:18.092Z,99.90
2018-10-16T04:29:46.683Z,99.90
2018-10-16T04:32:15.198Z,99.90
2018-10-16T04:34:43.736Z,99.90
2018-10-16T04:37:12.326Z,99.90
2018-10-16T04:39:40.774Z,99.90
2018-10-16T04:42:09.250Z,99.90
2018-10-16T04:44:37.713Z,99.90
2018-10-16T04:47:06.319Z,99.90
2018-10-16T04:49:34.883Z,99.90
2018-10-16T04:52:03.971Z,99.90
2018-10-16T04:54:34.282Z,99.90
2018-10-16T04:57:02.785Z,99.90
2018-10-16T04:59:31.365Z,99.90
2018-10-16T05:01:59.906Z,99.90
2018-10-16T05:04:28.451Z,99.70
2018-10-16T05:06:56.941Z,99.10
2018-10-16T05:09:25.358Z,98.30
2018-10-16T05:11:55.094Z,98.20
2018-10-16T05:14:23.545Z,98.40
2018-10-16T05:16:52.172Z,98.00
2018-10-16T05:19:20.682Z,98.40
2018-10-16T05:21:49.183Z,99.10
2018-10-16T05:24:17.637Z,99.10
2018-10-16T05:26:46.098Z,99.40
2018-10-16T05:29:14.695Z,99.00
2018-10-16T05:31:43.152Z,99.30
2018-10-16T05:34:11.609Z,98.90
2018-10-16T05:36:40.303Z,99.40
2018-10-16T05:39:10.937Z,99.70
2018-10-16T05:41:39.915Z,99.70
2018-10-16T05:44:08.771Z,99.60
2018-10-16T05:46:37.270Z,99.80
2018-10-16T05:49:06.027Z,99.20
2018-10-16T05:51:34.514Z,98.80
2018-10-16T05:54:03.000Z,99.20
2018-10-16T05:56:31.458Z,99.50
2018-10-16T05:58:59.954Z,99.90
2018-10-16T06:01:28.588Z,99.90
2018-10-16T06:03:57.085Z,99.90
2018-10-16T06:06:25.760Z,99.90
2018-10-16T06:08:54.279Z,99.90
2018-10-16T06:11:22.815Z,99.90
2018-10-16T06:13:51.559Z,99.90
2018-10-16T06:16:20.251Z,99.90
2018-10-16T06:18:48.982Z,99.90
2018-10-16T06:21:17.445Z,99.90
2018-10-16T06:23:45.996Z,99.90
2018-10-16T06:26:14.583Z,99.90
2018-10-16T06:28:43.064Z,99.90
2018-10-16T06:31:11.558Z,99.60
2018-10-16T06:33:40.020Z,98.50
2018-10-16T06:36:08.482Z,99.20
2018-10-16T06:38:37.102Z,98.80
2018-10-16T06:41:06.196Z,98.80
2018-10-16T06:43:34.984Z,98.10
2018-10-16T06:46:03.596Z,99.00
2018-10-16T06:48:32.253Z,97.50
2018-10-16T06:51:00.830Z,97.40
2018-10-16T06:53:29.283Z,97.10
2018-10-16T06:55:57.809Z,97.30
2018-10-16T06:58:26.249Z,98.30
2018-10-16T07:00:54.731Z,97.80
2018-10-16T07:03:23.174Z,96.70
2018-10-16T07:05:51.707Z,96.90
2018-10-16T07:08:20.255Z,96.10
2018-10-16T07:10:48.723Z,95.10
2018-10-16T07:13:17.177Z,94.60
2018-10-16T07:15:46.182Z,94.20
2018-10-16T07:18:21.504Z,94.30
2018-10-16T07:20:49.956Z,93.20
2018-10-16T07:23:18.549Z,93.40
2018-10-16T07:25:47.167Z,93.30
2018-10-16T07:28:15.636Z,92.80
2018-10-16T07:30:44.054Z,92.20
2018-10-16T07:33:12.536Z,92.00
2018-10-16T07:35:40.962Z,92.10
2018-10-16T07:38:09.465Z,92.00
2018-10-16T07:40:39.099Z,92.20
2018-10-16T07:43:07.660Z,91.60
2018-10-16T07:45:36.932Z,91.50
2018-10-16T07:48:05.867Z,91.50
2018-10-16T07:50:34.417Z,90.70
2018-10-16T07:53:04.335Z,90.70
2018-10-16T07:55:32.799Z,90.70
2018-10-16T07:58:01.553Z,90.60
2018-10-16T08:00:30.125Z,90.10
2018-10-16T08:02:58.966Z,89.80
2018-10-16T08:05:27.416Z,89.30
2018-10-16T08:07:56.125Z,89.60
2018-10-16T08:10:24.870Z,87.30
2018-10-16T08:12:53.446Z,87.80
2018-10-16T08:15:21.950Z,87.10
2018-10-16T08:17:50.826Z,86.80
2018-10-16T08:20:19.435Z,86.30
2018-10-16T08:22:48.055Z,86.10
2018-10-16T08:25:17.389Z,86.10
2018-10-16T08:27:46.030Z,85.50
2018-10-16T08:30:14.613Z,84.20
2018-10-16T08:32:43.076Z,84.30
2018-10-16T08:35:11.773Z,84.40
2018-10-16T08:39:48.604Z,84.40
2018-10-16T08:43:41.033Z,83.30
2018-10-16T08:46:20.965Z,82.40
2018-10-16T08:49:01.399Z,82.00
2018-10-16T08:51:35.289Z,82.10
2018-10-16T08:54:03.855Z,82.80
2018-10-16T08:56:33.347Z,81.60
2018-10-16T08:59:02.364Z,81.50
2018-10-16T09:01:30.966Z,81.10
2018-10-16T09:04:00.162Z,81.00
2018-10-16T09:06:28.760Z,81.00
2018-10-16T09:08:57.521Z,80.60
2018-10-16T09:11:26.086Z,80.00
2018-10-16T09:13:54.685Z,80.30
2018-10-16T09:16:23.730Z,79.70
2018-10-16T09:18:52.264Z,79.40
2018-10-16T09:21:20.746Z,76.20
2018-10-16T09:23:49.302Z,75.90
2018-10-16T09:26:17.854Z,75.00
2018-10-16T09:28:46.353Z,73.70
2018-10-16T09:31:14.833Z,74.50
2018-10-16T09:33:43.361Z,74.40
2018-10-16T09:36:11.888Z,73.40
2018-10-16T09:38:40.663Z,73.80
2018-10-16T09:41:09.219Z,73.20
2018-10-16T09:43:37.739Z,72.80
2018-10-16T09:46:06.287Z,72.40
2018-10-16T09:48:34.959Z,71.10
2018-10-16T09:51:03.397Z,70.50
2018-10-16T09:53:31.998Z,69.90
2018-10-16T09:56:00.460Z,68.70
2018-10-16T09:58:28.982Z,68.00
2018-10-16T10:01:09.466Z,69.10
2018-10-16T10:03:37.891Z,68.50
2018-10-16T10:06:06.517Z,66.70
2018-10-16T10:08:35.066Z,66.40
2018-10-16T10:11:03.908Z,66.30
2018-10-16T10:13:32.439Z,65.30
2018-10-16T10:16:00.887Z,65.40
2018-10-16T10:18:29.321Z,64.50
2018-10-16T10:20:57.762Z,62.30
2018-10-16T10:23:26.192Z,63.10
2018-10-16T10:25:54.802Z,62.30
2018-10-16T10:28:23.224Z,60.80
2018-10-16T10:30:51.678Z,62.10
2018-10-16T10:33:20.108Z,62.10
2018-10-16T10:35:48.549Z,60.30
2018-10-16T10:38:17.168Z,59.90
2018-10-16T10:40:45.594Z,61.40
2018-10-16T10:43:14.011Z,62.10
2018-10-16T10:45:42.627Z,62.50
2018-10-16T10:48:11.177Z,63.30
2018-10-16T10:50:39.852Z,63.30
2018-10-16T10:53:08.238Z,62.60
2018-10-16T10:55:36.998Z,63.40
2018-10-16T10:58:05.790Z,64.10
2018-10-16T11:00:34.274Z,62.80
2018-10-16T11:03:02.802Z,62.60
2018-10-16T11:05:31.493Z,61.30
2018-10-16T11:07:59.931Z,61.10
2018-10-16T11:10:28.358Z,59.50
2018-10-16T11:12:56.794Z,58.60
2018-10-16T11:15:25.247Z,58.30
2018-10-16T11:17:53.749Z,58.40
2018-10-16T11:20:22.262Z,58.40
2018-10-16T11:22:52.599Z,58.60
2018-10-16T11:25:21.036Z,58.70
2018-10-16T11:27:49.488Z,58.40
2018-10-16T11:30:18.022Z,58.20
2018-10-16T11:32:46.662Z,57.60
2018-10-16T11:35:15.604Z,56.50
2018-10-16T11:37:44.159Z,56.10
2018-10-16T11:40:12.847Z,55.90
2018-10-16T11:42:42.591Z,54.30
2018-10-16T11:45:11.082Z,53.70
2018-10-16T11:47:39.745Z,53.70
2018-10-16T11:50:09.634Z,53.70
2018-10-16T11:52:39.242Z,53.30
2018-10-16T11:55:08.958Z,54.80
2018-10-16T11:57:38.097Z,52.80
2018-10-16T12:00:11.932Z,52.60
2018-10-16T12:02:41.126Z,52.40
2018-10-16T12:05:10.146Z,51.20
2018-10-16T12:07:39.517Z,50.00
2018-10-16T12:10:08.555Z,49.10
2018-10-16T12:12:37.656Z,48.30
2018-10-16T12:15:07.400Z,50.00
2018-10-16T12:17:41.763Z,48.00
2018-10-16T12:20:21.118Z,45.90
2018-10-16T12:22:50.305Z,47.10
2018-10-16T12:25:19.481Z,48.50
2018-10-16T12:27:48.668Z,46.30
2018-10-16T12:30:17.681Z,45.60
2018-10-16T12:32:46.803Z,43.90
2018-10-16T12:35:15.869Z,44.20
2018-10-16T12:37:44.916Z,45.10
2018-10-16T12:40:13.935Z,44.30
2018-10-16T12:42:42.667Z,45.40
2018-10-16T12:45:11.771Z,44.90
2018-10-16T12:47:40.977Z,44.50
2018-10-16T12:50:10.262Z,43.70
2018-10-16T12:52:39.427Z,44.90
2018-10-16T12:55:08.501Z,45.40
2018-10-16T12:57:37.871Z,44.50
2018-10-16T13:00:07.675Z,44.40
2018-10-16T13:02:36.941Z,43.50
2018-10-16T13:05:06.870Z,43.40
2018-10-16T13:07:37.241Z,43.50
2018-10-16T13:10:12.916Z,43.40
2018-10-16T13:12:42.592Z,43.50
2018-10-16T13:15:12.926Z,43.10
2018-10-16T13:17:42.148Z,44.00
2018-10-16T13:20:12.705Z,43.00
2018-10-16T13:22:42.838Z,44.10
2018-10-16T13:25:13.788Z,42.30
2018-10-16T13:27:43.055Z,42.30
2018-10-16T13:30:14.209Z,42.10
2018-10-16T13:32:43.668Z,42.40
2018-10-16T13:35:14.286Z,39.40
2018-10-16T13:37:43.895Z,39.70
2018-10-16T13:40:13.186Z,38.80
2018-10-16T13:42:42.358Z,38.30
2018-10-16T13:45:13.182Z,37.70
2018-10-16T13:47:42.896Z,37.80
2018-10-16T13:50:13.703Z,36.60
2018-10-16T13:52:43.485Z,36.50
2018-10-16T13:55:13.149Z,38.30
2018-10-16T13:57:43.416Z,36.70
2018-10-16T14:00:15.363Z,36.80
2018-10-16T14:02:46.066Z,37.00
2018-10-16T14:05:15.376Z,35.90
2018-10-16T14:07:44.777Z,37.50
2018-10-16T14:10:16.128Z,36.70
2018-10-16T14:12:46.447Z,37.10
2018-10-16T14:15:15.867Z,38.00
2018-10-16T14:17:44.957Z,37.50
2018-10-16T14:20:14.181Z,37.20
2018-10-16T14:22:44.448Z,37.20
2018-10-16T14:25:15.104Z,37.20
2018-10-16T14:27:44.591Z,38.10
2018-10-16T14:30:14.851Z,41.10
2018-10-16T14:32:44.376Z,39.80
2018-10-16T14:35:13.863Z,37.40
2018-10-16T14:37:43.745Z,38.70
2018-10-16T14:40:14.356Z,37.80
2018-10-16T14:42:44.027Z,34.60
2018-10-16T14:45:13.779Z,33.00
2018-10-16T14:47:42.807Z,32.90
2018-10-16T14:50:12.993Z,32.20
2018-10-16T14:52:44.122Z,31.40
2018-10-16T14:55:13.247Z,30.30
2018-10-16T14:57:42.257Z,30.00
2018-10-16T15:00:12.523Z,28.80
2018-10-16T15:02:41.688Z,27.60
2018-10-16T15:05:11.725Z,26.60
2018-10-16T15:07:40.766Z,26.10
2018-10-16T15:10:10.381Z,26.80
2018-10-16T15:12:39.767Z,26.10
2018-10-16T15:15:09.155Z,26.20
2018-10-16T15:17:38.187Z,26.30
2018-10-16T15:20:08.911Z,26.10
2018-10-16T15:22:38.138Z,26.80
2018-10-16T15:25:08.003Z,28.50
2018-10-16T15:27:37.031Z,29.50
2018-10-16T15:30:07.601Z,31.00
2018-10-16T15:32:36.618Z,33.20
2018-10-16T15:35:06.507Z,34.60
2018-10-16T15:37:35.918Z,37.10
2018-10-16T15:40:05.837Z,39.50
2018-10-16T15:42:34.995Z,41.60
2018-10-16T15:45:04.095Z,43.10
2018-10-16T15:47:33.111Z,45.00
2018-10-16T15:50:01.616Z,47.50
2018-10-16T15:52:30.942Z,49.90
2018-10-16T15:54:59.418Z,50.90
2018-10-16T15:57:28.384Z,53.10
2018-10-16T15:59:57.410Z,53.50
2018-10-16T16:02:26.117Z,54.00
2018-10-16T16:04:55.361Z,55.30
2018-10-16T16:07:24.416Z,55.60
2018-10-16T16:09:53.084Z,56.90
2018-10-16T16:12:21.761Z,57.60
2018-10-16T16:14:50.428Z,58.50
2018-10-16T16:17:18.896Z,59.90
2018-10-16T16:19:47.404Z,61.10
2018-10-16T16:22:15.910Z,62.00
2018-10-16T16:24:44.479Z,62.80
2018-10-16T16:27:12.977Z,62.10
2018-10-16T16:29:41.448Z,64.10
2018-10-16T16:32:09.983Z,65.70
2018-10-16T16:34:38.523Z,66.30
2018-10-16T16:37:06.955Z,66.50
2018-10-16T16:39:35.520Z,67.30
2018-10-16T16:42:04.056Z,68.10
2018-10-16T16:44:32.731Z,67.90
2018-10-16T16:47:01.378Z,68.90
2018-10-16T16:49:29.981Z,68.60
2018-10-16T16:51:58.440Z,70.00
2018-10-16T16:54:27.143Z,69.10
2018-10-16T16:56:55.696Z,70.10
2018-10-16T16:59:24.573Z,70.40
2018-10-16T17:01:53.059Z,70.90
2018-10-16T17:04:21.681Z,70.70
2018-10-16T17:06:50.184Z,72.00
2018-10-16T17:09:18.626Z,71.70
2018-10-16T17:11:47.191Z,71.50
2018-10-16T17:14:15.804Z,72.50
2018-10-16T17:16:44.474Z,71.30
2018-10-16T17:19:13.961Z,72.40
2018-10-16T17:21:42.564Z,72.40
2018-10-16T17:24:11.220Z,72.70
2018-10-16T17:26:39.844Z,73.20
2018-10-16T17:29:08.271Z,72.20
2018-10-16T17:31:36.933Z,71.60
2018-10-16T17:34:05.603Z,71.90
2018-10-16T17:36:34.309Z,72.40
2018-10-16T17:39:03.469Z,74.30
2018-10-16T17:41:33.564Z,73.90
2018-10-16T17:44:02.861Z,73.90
2018-10-16T17:46:31.430Z,74.50
2018-10-16T17:49:00.159Z,74.80
2018-10-16T17:51:29.332Z,75.20
2018-10-16T17:53:58.748Z,75.10
2018-10-16T17:56:27.483Z,75.00
2018-10-16T17:58:56.061Z,76.20
2018-10-16T18:01:25.628Z,76.20
2018-10-16T18:03:54.579Z,76.50
2018-10-16T18:06:23.192Z,76.80
2018-10-16T18:08:51.915Z,77.00
2018-10-16T18:11:22.563Z,78.50
2018-10-16T18:13:55.269Z,79.60
2018-10-16T18:16:23.894Z,80.70
2018-10-16T18:18:55.157Z,81.30
2018-10-16T18:21:23.733Z,80.90
2018-10-16T18:23:52.363Z,81.30
2018-10-16T18:26:21.090Z,81.80
2018-10-16T18:28:49.743Z,82.20
2018-10-16T18:31:18.305Z,82.30
2018-10-16T18:33:46.835Z,82.50
2018-10-16T18:36:15.460Z,82.60
2018-10-16T18:38:43.981Z,83.10
2018-10-16T18:41:12.479Z,82.60
2018-10-16T18:43:47.801Z,82.60
2018-10-16T18:46:16.469Z,82.70
2018-10-16T18:48:45.671Z,83.80
2018-10-16T18:51:14.649Z,84.50
2018-10-16T18:53:43.176Z,84.90
2018-10-16T18:56:11.634Z,86.10
2018-10-16T18:58:40.080Z,85.20
2018-10-16T19:01:08.884Z,85.50
2018-10-16T19:03:38.322Z,85.90
2018-10-16T19:06:07.012Z,86.30
2018-10-16T19:08:35.689Z,86.40
2018-10-16T19:11:04.139Z,86.60
2018-10-16T19:13:32.792Z,87.00
2018-10-16T19:16:01.257Z,87.10
2018-10-16T19:18:29.722Z,88.00
2018-10-16T19:20:58.205Z,88.00
2018-10-16T19:23:26.890Z,88.00
2018-10-16T19:25:55.416Z,87.60
2018-10-16T19:28:23.852Z,87.10
2018-10-16T19:30:52.365Z,87.30
2018-10-16T19:33:20.836Z,88.00
2018-10-16T19:35:49.415Z,88.30
2018-10-16T19:38:18.016Z,88.60
2018-10-16T19:40:46.664Z,89.20
2018-10-16T19:43:15.167Z,88.70
2018-10-16T19:45:43.898Z,88.80
2018-10-16T19:48:12.460Z,89.90
2018-10-16T19:50:40.939Z,90.10
2018-10-16T19:53:09.723Z,90.30
2018-10-16T19:55:38.293Z,90.20
2018-10-16T19:58:06.758Z,90.10
2018-10-16T20:00:35.202Z,90.00
2018-10-16T20:03:03.767Z,90.00
2018-10-16T20:05:32.456Z,90.10
2018-10-16T20:08:01.024Z,90.20
2018-10-16T20:10:29.471Z,90.50
2018-10-16T20:12:58.112Z,90.70
2018-10-16T20:15:26.620Z,90.70
2018-10-16T20:17:55.590Z,90.80
2018-10-16T20:20:24.098Z,90.70
2018-10-16T20:22:52.765Z,90.80
2018-10-16T20:25:21.600Z,91.00
2018-10-16T20:27:50.217Z,91.30
2018-10-16T20:30:18.654Z,91.40
2018-10-16T20:32:47.443Z,91.40
2018-10-16T20:35:16.846Z,91.50
2018-10-16T20:37:46.970Z,91.50
2018-10-16T20:40:17.400Z,91.50
2018-10-16T20:42:46.078Z,91.50
2018-10-16T20:45:15.088Z,91.80
2018-10-16T20:47:43.991Z,91.60
2018-10-16T20:50:12.584Z,91.60
2018-10-16T20:52:41.110Z,91.60
2018-10-16T20:55:10.038Z,91.60
2018-10-16T20:57:38.975Z,91.70
2018-10-16T21:00:08.197Z,92.10
2018-10-16T21:02:37.067Z,91.80
2018-10-16T21:05:06.653Z,91.50
2018-10-16T21:07:35.136Z,91.70
2018-10-16T21:10:03.753Z,91.40
2018-10-16T21:12:32.251Z,91.60
2018-10-16T21:15:01.304Z,91.40
2018-10-16T21:17:31.077Z,91.30
2018-10-16T21:19:59.604Z,91.40
2018-10-16T21:22:28.035Z,91.60
2018-10-16T21:24:56.550Z,91.40
2018-10-16T21:27:25.267Z,91.50
2018-10-16T21:29:53.778Z,91.60
2018-10-16T21:32:22.285Z,91.80
2018-10-16T21:34:50.834Z,91.70
2018-10-16T21:37:19.420Z,91.70
2018-10-16T21:39:47.875Z,92.00
2018-10-16T21:42:16.327Z,92.10
2018-10-16T21:44:45.087Z,92.30
2018-10-16T21:47:13.565Z,91.80
2018-10-16T21:49:42.348Z,91.80
2018-10-16T21:52:10.839Z,92.30
2018-10-16T21:54:39.302Z,92.00
2018-10-16T21:57:07.702Z,92.20
2018-10-16T21:59:36.267Z,92.10
2018-10-16T22:02:10.426Z,92.70
2018-10-16T22:04:40.517Z,92.50
2018-10-16T22:07:09.612Z,92.50
2018-10-16T22:09:38.420Z,92.60
2018-10-16T22:12:07.000Z,92.80
2018-10-16T22:14:35.678Z,92.90
2018-10-16T22:17:04.318Z,92.90
2018-10-16T22:19:32.961Z,93.20
2018-10-16T22:22:01.417Z,93.20
2018-10-16T22:24:30.167Z,93.40
2018-10-16T22:26:58.615Z,93.60
2018-10-16T22:29:27.137Z,93.70
2018-10-16T22:31:55.716Z,94.00
2018-10-16T22:34:24.192Z,94.00
2018-10-16T22:36:52.681Z,94.20
2018-10-16T22:39:21.403Z,94.30
2018-10-16T22:41:49.820Z,94.30
2018-10-16T22:44:18.290Z,94.40
2018-10-16T22:46:46.806Z,94.40
2018-10-16T22:49:15.301Z,94.50
2018-10-16T22:51:44.197Z,94.30
2018-10-16T22:54:12.629Z,94.10
2018-10-16T22:56:41.056Z,94.80
2018-10-16T22:59:09.576Z,94.00
2018-10-16T23:01:38.199Z,94.60
2018-10-16T23:04:06.607Z,94.90
2018-10-16T23:06:35.092Z,94.90
2018-10-16T23:09:04.499Z,95.10
2018-10-16T23:11:33.055Z,95.10
2018-10-16T23:14:01.680Z,95.20
2018-10-16T23:16:33.411Z,95.40
2018-10-16T23:19:01.996Z,95.40
2018-10-16T23:21:30.932Z,95.50
2018-10-16T23:23:59.359Z,95.60
2018-10-16T23:26:27.841Z,95.80
2018-10-16T23:28:56.314Z,96.00
2018-10-16T23:31:24.982Z,96.20
2018-10-16T23:33:53.412Z,95.80
2018-10-16T23:36:21.904Z,96.00
2018-10-16T23:38:50.413Z,96.20
2018-10-16T23:41:18.967Z,96.30
2018-10-16T23:43:47.425Z,96.30
2018-10-16T23:46:15.857Z,96.50
2018-10-16T23:48:44.305Z,96.50
2018-10-16T23:51:12.819Z,96.70
2018-10-16T23:53:41.287Z,96.90
2018-10-16T23:56:09.715Z,96.80
2018-10-16T23:58:38.192Z,97.10
